createdAt,value
2022-11-16T00:00:24.248Z,23.30
2022-11-16T00:02:52.766Z,22.60
2022-11-16T00:05:25.501Z,22.23
2022-11-16T00:07:56.889Z,24.35
2022-11-16T00:10:25.213Z,25.80
2022-11-16T00:12:53.535Z,23.80
2022-11-16T00:15:21.773Z,25.40
2022-11-16T00:17:49.913Z,26.38
2022-11-16T00:20:18.393Z,24.90
2022-11-16T00:22:46.513Z,27.05
2022-11-16T00:25:15.032Z,25.20
2022-11-16T00:27:43.419Z,24.92
2022-11-16T00:30:12.043Z,22.88
2022-11-16T00:32:40.663Z,24.60
2022-11-16T00:35:09.301Z,25.77
2022-11-16T00:37:37.385Z,25.20
2022-11-16T00:40:06.177Z,25.13
2022-11-16T00:42:34.512Z,25.90
2022-11-16T00:45:03.247Z,28.05
2022-11-16T00:47:31.833Z,23.00
2022-11-16T00:50:00.236Z,25.15
2022-11-16T00:52:28.613Z,24.65
2022-11-16T00:54:57.452Z,23.15
2022-11-16T00:57:25.701Z,27.30
2022-11-16T00:59:54.096Z,26.65
2022-11-16T01:02:23.453Z,25.98
2022-11-16T01:04:52.112Z,25.45
2022-11-16T01:07:20.159Z,24.58
2022-11-16T01:09:48.873Z,22.83
2022-11-16T01:12:18.832Z,22.83
2022-11-16T01:14:48.369Z,23.52
2022-11-16T01:17:16.511Z,21.98
2022-11-16T01:19:44.750Z,24.83
2022-11-16T01:22:13.546Z,24.27
2022-11-16T01:24:42.180Z,23.48
2022-11-16T01:27:10.302Z,22.95
2022-11-16T01:29:41.246Z,24.75
2022-11-16T01:32:09.876Z,24.95
2022-11-16T01:34:38.326Z,26.23
2022-11-16T01:37:27.292Z,25.30
2022-11-16T01:39:55.856Z,25.80
2022-11-16T01:42:27.936Z,26.58
2022-11-16T01:45:29.127Z,26.55
2022-11-16T01:47:59.594Z,26.77
2022-11-16T01:50:32.643Z,26.17
2022-11-16T01:53:08.361Z,25.60
2022-11-16T01:55:48.076Z,23.42
2022-11-16T01:58:36.925Z,26.73
2022-11-16T02:01:23.994Z,25.00
2022-11-16T02:03:57.402Z,25.38
2022-11-16T02:06:28.922Z,25.63
2022-11-16T02:09:39.241Z,24.33
2022-11-16T02:12:08.995Z,26.17
2022-11-16T02:14:55.891Z,29.15
2022-11-16T02:17:31.680Z,29.00
2022-11-16T02:20:22.758Z,28.75
2022-11-16T02:23:19.316Z,27.25
2022-11-16T02:26:15.561Z,28.05
2022-11-16T02:28:47.171Z,27.17
2022-11-16T02:31:24.371Z,28.65
2022-11-16T02:33:56.865Z,29.13
2022-11-16T02:36:26.186Z,30.77
2022-11-16T02:39:09.992Z,27.70
2022-11-16T02:41:42.595Z,28.25
2022-11-16T02:44:18.700Z,28.98
2022-11-16T02:46:52.067Z,26.05
2022-11-16T02:49:24.452Z,28.48
2022-11-16T02:51:55.311Z,29.17
2022-11-16T02:54:25.791Z,26.92
2022-11-16T02:57:00.101Z,26.50
2022-11-16T02:59:52.076Z,26.85
2022-11-16T03:02:34.629Z,26.42
2022-11-16T03:05:21.009Z,26.85
2022-11-16T03:08:15.229Z,26.25
2022-11-16T03:11:06.865Z,25.55
2022-11-16T03:13:37.579Z,26.65
2022-11-16T03:16:15.380Z,25.60
2022-11-16T03:18:45.325Z,29.00
2022-11-16T03:21:33.280Z,27.88
2022-11-16T03:24:03.905Z,27.30
2022-11-16T03:26:49.426Z,27.85
2022-11-16T03:29:29.821Z,28.10
2022-11-16T03:32:13.904Z,28.05
2022-11-16T03:34:49.699Z,25.58
2022-11-16T03:37:21.143Z,29.37
2022-11-16T03:39:51.459Z,28.70
2022-11-16T03:42:22.580Z,25.13
2022-11-16T03:44:51.379Z,25.17
2022-11-16T03:47:19.940Z,26.30
2022-11-16T03:49:48.670Z,27.15
2022-11-16T03:52:19.705Z,26.75
2022-11-16T03:54:50.271Z,25.58
2022-11-16T03:57:18.895Z,26.95
2022-11-16T03:59:53.329Z,27.30
2022-11-16T04:02:22.195Z,27.27
2022-11-16T04:05:10.937Z,25.90
2022-11-16T04:07:57.942Z,25.33
2022-11-16T04:10:44.939Z,25.20
2022-11-16T04:13:34.030Z,25.48
2022-11-16T04:16:21.070Z,23.73
2022-11-16T04:19:07.601Z,26.17
2022-11-16T04:21:59.937Z,23.90
2022-11-16T04:24:37.600Z,25.85
2022-11-16T16:27:28.831Z,23.20
2022-11-16T16:29:58.921Z,24.10
2022-11-16T16:32:29.833Z,23.75
2022-11-16T16:35:00.601Z,23.75
2022-11-16T16:37:33.978Z,24.13
2022-11-16T16:40:02.857Z,19.67
2022-11-16T16:42:31.536Z,20.70
2022-11-16T16:45:01.387Z,22.95
2022-11-16T16:47:30.310Z,20.85
2022-11-16T16:49:58.943Z,23.58
2022-11-16T16:52:28.302Z,20.05
2022-11-16T16:54:56.664Z,18.13
2022-11-16T16:57:25.146Z,23.17
2022-11-16T16:59:53.763Z,19.00
2022-11-16T17:02:22.580Z,20.52
2022-11-16T17:04:50.982Z,18.20
2022-11-16T17:07:19.311Z,17.45
2022-11-16T17:09:48.128Z,18.88
2022-11-16T17:12:16.297Z,19.63
2022-11-16T17:14:52.070Z,19.27
2022-11-16T17:17:21.150Z,18.70
2022-11-16T17:19:49.548Z,20.27
2022-11-16T17:22:19.522Z,21.70
2022-11-16T17:24:48.011Z,19.50
2022-11-16T17:27:16.365Z,20.45
2022-11-16T17:29:45.026Z,18.27
2022-11-16T17:32:13.272Z,21.77
2022-11-16T17:34:41.827Z,18.70
2022-11-16T17:37:10.507Z,20.70
2022-11-16T17:39:39.117Z,21.25
